sensor_id;sensor_type;location;lat;lon;timestamp;pressure;altitude;pressure_sealevel;temperature;humidity
38191;BME280;25191;47.510;19.124;2022-11-20T00:06:40;99973.03;;;20.49;54.88
38191;BME280;25191;47.510;19.124;2022-11-20T00:16:41;99970.78;;;20.44;55.16
38191;BME280;25191;47.510;19.124;2022-11-20T00:26:42;99993.94;;;20.51;55.15
38191;BME280;25191;47.510;19.124;2022-11-20T00:36:42;99996.84;;;20.47;54.99
38191;BME280;25191;47.510;19.124;2022-11-20T00:46:43;99999.59;;;20.46;55.02
38191;BME280;25191;47.510;19.124;2022-11-20T00:56:43;99980.47;;;20.44;55.00
38191;BME280;25191;47.510;19.124;2022-11-20T01:06:43;99979.75;;;20.42;54.96
38191;BME280;25191;47.510;19.124;2022-11-20T01:16:46;99990.03;;;20.45;55.11
38191;BME280;25191;47.510;19.124;2022-11-20T01:26:50;99991.13;;;20.42;54.91
38191;BME280;25191;47.510;19.124;2022-11-20T01:36:51;99980.00;;;20.39;54.96
38191;BME280;25191;47.510;19.124;2022-11-20T01:47:03;99967.44;;;20.42;55.05
38191;BME280;25191;47.510;19.124;2022-11-20T01:57:06;99956.44;;;20.37;55.22
38191;BME280;25191;47.510;19.124;2022-11-20T02:07:10;99941.66;;;20.36;55.08
38191;BME280;25191;47.510;19.124;2022-11-20T02:17:10;99966.28;;;20.35;54.60
38191;BME280;25191;47.510;19.124;2022-11-20T02:27:13;99961.97;;;20.34;54.89
38191;BME280;25191;47.510;19.124;2022-11-20T02:37:14;99949.06;;;20.31;54.82
38191;BME280;25191;47.510;19.124;2022-11-20T02:47:14;99939.97;;;20.35;54.99
38191;BME280;25191;47.510;19.124;2022-11-20T02:57:15;99939.13;;;20.35;55.35
38191;BME280;25191;47.510;19.124;2022-11-20T03:07:15;99918.94;;;20.35;54.96
38191;BME280;25191;47.510;19.124;2022-11-20T03:17:16;99918.22;;;20.33;55.05
38191;BME280;25191;47.510;19.124;2022-11-20T03:27:16;99945.25;;;20.35;54.83
38191;BME280;25191;47.510;19.124;2022-11-20T03:37:17;99939.13;;;20.35;55.19
38191;BME280;25191;47.510;19.124;2022-11-20T03:47:17;99917.28;;;20.34;55.11
38191;BME280;25191;47.510;19.124;2022-11-20T03:57:18;99918.50;;;20.30;54.92
38191;BME280;25191;47.510;19.124;2022-11-20T04:07:18;99923.63;;;20.31;54.40
38191;BME280;25191;47.510;19.124;2022-11-20T04:17:18;99909.63;;;20.31;54.34
38191;BME280;25191;47.510;19.124;2022-11-20T04:27:19;99891.94;;;20.33;54.83
38191;BME280;25191;47.510;19.124;2022-11-20T04:37:19;99890.03;;;20.35;55.26
38191;BME280;25191;47.510;19.124;2022-11-20T04:47:20;99908.28;;;20.37;55.01
38191;BME280;25191;47.510;19.124;2022-11-20T04:57:21;99862.78;;;20.36;55.12
38191;BME280;25191;47.510;19.124;2022-11-20T05:07:21;99871.34;;;20.38;55.23
38191;BME280;25191;47.510;19.124;2022-11-20T05:17:22;99877.53;;;20.48;55.10
38191;BME280;25191;47.510;19.124;2022-11-20T05:27:22;99858.47;;;20.56;54.80
38191;BME280;25191;47.510;19.124;2022-11-20T05:37:23;99833.34;;;20.63;54.50
38191;BME280;25191;47.510;19.124;2022-11-20T05:47:26;99845.97;;;20.70;54.02
38191;BME280;25191;47.510;19.124;2022-11-20T05:57:27;99863.06;;;20.75;54.12
38191;BME280;25191;47.510;19.124;2022-11-20T06:07:28;99868.19;;;20.77;53.29
38191;BME280;25191;47.510;19.124;2022-11-20T06:17:28;99886.09;;;20.83;54.35
38191;BME280;25191;47.510;19.124;2022-11-20T06:27:29;99861.28;;;20.97;55.42
38191;BME280;25191;47.510;19.124;2022-11-20T06:37:29;99897.31;;;21.06;55.12
38191;BME280;25191;47.510;19.124;2022-11-20T06:47:29;99915.22;;;21.13;54.25
38191;BME280;25191;47.510;19.124;2022-11-20T06:57:30;99916.94;;;21.23;54.65
38191;BME280;25191;47.510;19.124;2022-11-20T07:07:30;99884.00;;;21.29;54.57
38191;BME280;25191;47.510;19.124;2022-11-20T07:17:31;99891.25;;;21.37;54.88
38191;BME280;25191;47.510;19.124;2022-11-20T07:27:31;99914.41;;;21.43;54.73
38191;BME280;25191;47.510;19.124;2022-11-20T07:37:35;99936.19;;;21.45;54.63
38191;BME280;25191;47.510;19.124;2022-11-20T07:47:36;99930.53;;;21.50;54.85
38191;BME280;25191;47.510;19.124;2022-11-20T07:57:36;99927.63;;;21.53;55.02
38191;BME280;25191;47.510;19.124;2022-11-20T08:07:38;99910.72;;;21.55;54.25
38191;BME280;25191;47.510;19.124;2022-11-20T08:17:39;99919.66;;;20.91;47.74
38191;BME280;25191;47.510;19.124;2022-11-20T08:27:39;99918.81;;;21.33;50.36
38191;BME280;25191;47.510;19.124;2022-11-20T08:37:40;99910.97;;;21.42;51.38
38191;BME280;25191;47.510;19.124;2022-11-20T08:47:42;99917.38;;;21.50;52.80
38191;BME280;25191;47.510;19.124;2022-11-20T08:57:42;99924.75;;;21.56;53.11
38191;BME280;25191;47.510;19.124;2022-11-20T09:07:43;99934.56;;;21.54;52.79
38191;BME280;25191;47.510;19.124;2022-11-20T09:27:58;99955.41;;;21.57;53.26
38191;BME280;25191;47.510;19.124;2022-11-20T09:38:04;99933.34;;;21.58;53.47
38191;BME280;25191;47.510;19.124;2022-11-20T09:58:45;99911.13;;;21.51;51.37
38191;BME280;25191;47.510;19.124;2022-11-20T10:08:56;99909.56;;;21.48;51.56
38191;BME280;25191;47.510;19.124;2022-11-20T10:29:37;99872.91;;;21.56;51.80
38191;BME280;25191;47.510;19.124;2022-11-20T10:49:53;99872.09;;;21.66;51.95
38191;BME280;25191;47.510;19.124;2022-11-20T11:00:11;99876.28;;;21.68;51.75
38191;BME280;25191;47.510;19.124;2022-11-20T11:10:21;99891.41;;;21.76;52.09
38191;BME280;25191;47.510;19.124;2022-11-20T11:20:25;99895.97;;;20.05;35.56
38191;BME280;25191;47.510;19.124;2022-11-20T11:30:27;99885.72;;;20.55;39.67
38191;BME280;25191;47.510;19.124;2022-11-20T11:40:33;99870.50;;;20.91;44.69
38191;BME280;25191;47.510;19.124;2022-11-20T11:50:34;99865.59;;;21.08;46.56
38191;BME280;25191;47.510;19.124;2022-11-20T12:00:36;99852.75;;;21.15;48.23
38191;BME280;25191;47.510;19.124;2022-11-20T12:31:38;99833.69;;;21.32;50.00
38191;BME280;25191;47.510;19.124;2022-11-20T12:42:10;99841.88;;;21.29;50.08
38191;BME280;25191;47.510;19.124;2022-11-20T13:03:36;99867.09;;;21.32;50.75
38191;BME280;25191;47.510;19.124;2022-11-20T13:14:04;99864.19;;;21.35;50.75
38191;BME280;25191;47.510;19.124;2022-11-20T13:24:22;99847.41;;;21.26;48.25
38191;BME280;25191;47.510;19.124;2022-11-20T13:34:25;99849.94;;;21.37;49.65
38191;BME280;25191;47.510;19.124;2022-11-20T13:44:42;99827.06;;;21.38;49.89
38191;BME280;25191;47.510;19.124;2022-11-20T14:05:22;99812.25;;;21.47;50.89
38191;BME280;25191;47.510;19.124;2022-11-20T14:15:29;99812.81;;;21.50;50.63
38191;BME280;25191;47.510;19.124;2022-11-20T14:25:30;99815.31;;;21.52;50.96
38191;BME280;25191;47.510;19.124;2022-11-20T14:35:35;99827.53;;;21.53;50.88
38191;BME280;25191;47.510;19.124;2022-11-20T14:45:37;99844.72;;;20.85;40.24
38191;BME280;25191;47.510;19.124;2022-11-20T14:55:38;99838.69;;;21.04;45.93
38191;BME280;25191;47.510;19.124;2022-11-20T15:05:47;99854.69;;;21.13;47.71
38191;BME280;25191;47.510;19.124;2022-11-20T15:15:53;99858.59;;;21.18;49.15
38191;BME280;25191;47.510;19.124;2022-11-20T15:25:56;99861.81;;;21.22;48.95
38191;BME280;25191;47.510;19.124;2022-11-20T15:35:58;99865.16;;;21.24;49.52
38191;BME280;25191;47.510;19.124;2022-11-20T15:46:04;99874.56;;;21.26;49.67
38191;BME280;25191;47.510;19.124;2022-11-20T15:56:05;99866.69;;;21.26;51.01
38191;BME280;25191;47.510;19.124;2022-11-20T16:06:06;99870.00;;;21.28;51.33
38191;BME280;25191;47.510;19.124;2022-11-20T16:16:17;99864.72;;;21.28;51.15
38191;BME280;25191;47.510;19.124;2022-11-20T16:26:19;99854.91;;;21.31;51.91
38191;BME280;25191;47.510;19.124;2022-11-20T16:36:23;99863.91;;;21.28;51.87
38191;BME280;25191;47.510;19.124;2022-11-20T16:46:26;99858.78;;;21.26;51.96
38191;BME280;25191;47.510;19.124;2022-11-20T16:56:27;99844.75;;;21.26;51.99
38191;BME280;25191;47.510;19.124;2022-11-20T17:06:30;99843.38;;;21.22;52.43
38191;BME280;25191;47.510;19.124;2022-11-20T17:16:31;99825.91;;;21.21;52.42
38191;BME280;25191;47.510;19.124;2022-11-20T17:26:33;99815.50;;;21.19;52.49
38191;BME280;25191;47.510;19.124;2022-11-20T17:36:34;99814.09;;;21.15;52.04
38191;BME280;25191;47.510;19.124;2022-11-20T17:46:34;99794.84;;;21.15;52.70
38191;BME280;25191;47.510;19.124;2022-11-20T17:56:40;99801.78;;;21.16;52.77
38191;BME280;25191;47.510;19.124;2022-11-20T18:06:59;99802.63;;;21.26;54.48
38191;BME280;25191;47.510;19.124;2022-11-20T18:17:03;99824.56;;;21.36;54.81
38191;BME280;25191;47.510;19.124;2022-11-20T18:27:05;99837.78;;;21.46;55.43
38191;BME280;25191;47.510;19.124;2022-11-20T18:37:06;99855.81;;;21.51;55.22
38191;BME280;25191;47.510;19.124;2022-11-20T18:47:12;99874.69;;;21.56;54.84
38191;BME280;25191;47.510;19.124;2022-11-20T18:57:12;99871.94;;;21.57;54.32
38191;BME280;25191;47.510;19.124;2022-11-20T19:07:15;99871.94;;;21.57;54.65
38191;BME280;25191;47.510;19.124;2022-11-20T19:17:16;99861.41;;;21.57;54.50
38191;BME280;25191;47.510;19.124;2022-11-20T19:27:16;99877.31;;;21.56;53.83
38191;BME280;25191;47.510;19.124;2022-11-20T19:37:17;99848.59;;;21.53;54.12
38191;BME280;25191;47.510;19.124;2022-11-20T19:47:17;99852.47;;;21.49;53.50
38191;BME280;25191;47.510;19.124;2022-11-20T19:57:18;99836.38;;;21.52;53.55
38191;BME280;25191;47.510;19.124;2022-11-20T20:07:18;99823.66;;;21.47;53.55
38191;BME280;25191;47.510;19.124;2022-11-20T20:17:19;99814.88;;;21.47;53.42
38191;BME280;25191;47.510;19.124;2022-11-20T20:27:19;99817.09;;;21.41;53.62
38191;BME280;25191;47.510;19.124;2022-11-20T20:37:19;99804.63;;;21.43;53.20
38191;BME280;25191;47.510;19.124;2022-11-20T20:47:20;99798.91;;;21.38;53.34
38191;BME280;25191;47.510;19.124;2022-11-20T20:57:21;99818.28;;;21.27;53.79
38191;BME280;25191;47.510;19.124;2022-11-20T21:07:22;99805.94;;;21.18;52.63
38191;BME280;25191;47.510;19.124;2022-11-20T21:17:22;99820.34;;;21.14;52.70
38191;BME280;25191;47.510;19.124;2022-11-20T21:27:23;99818.09;;;21.09;52.86
38191;BME280;25191;47.510;19.124;2022-11-20T21:37:23;99826.63;;;21.02;53.41
38191;BME280;25191;47.510;19.124;2022-11-20T21:47:24;99823.00;;;20.93;53.65
38191;BME280;25191;47.510;19.124;2022-11-20T21:57:24;99813.72;;;20.89;54.10
38191;BME280;25191;47.510;19.124;2022-11-20T22:07:24;99819.34;;;20.84;54.01
38191;BME280;25191;47.510;19.124;2022-11-20T22:17:25;99798.69;;;20.79;54.23
38191;BME280;25191;47.510;19.124;2022-11-20T22:27:45;99782.34;;;20.76;54.12
38191;BME280;25191;47.510;19.124;2022-11-20T22:37:48;99773.03;;;20.72;54.33
38191;BME280;25191;47.510;19.124;2022-11-20T22:47:49;99768.97;;;20.68;54.21
38191;BME280;25191;47.510;19.124;2022-11-20T22:57:49;99759.28;;;20.68;54.35
38191;BME280;25191;47.510;19.124;2022-11-20T23:07:49;99754.41;;;20.63;54.25
38191;BME280;25191;47.510;19.124;2022-11-20T23:17:50;99747.47;;;20.62;54.17
38191;BME280;25191;47.510;19.124;2022-11-20T23:27:51;99746.09;;;20.58;53.99
38191;BME280;25191;47.510;19.124;2022-11-20T23:37:51;99744.41;;;20.57;54.12
38191;BME280;25191;47.510;19.124;2022-11-20T23:47:52;99731.25;;;20.57;54.07
38191;BME280;25191;47.510;19.124;2022-11-20T23:57:52;99727.91;;;20.55;54.21
